Ertholm — OVJX — position and weather

sailwx.info

Track history (hours):
 
Tides and Currents Weather Stations Pressure Air Temp Water Temp Dewpoint Dewpoint Depression Visibility Wind Speed Wind Dir Waves Ship Positions

Ertholm

Last reported at 2016-Jul-25 19:33 UTC. Time now 2016-Jul-25 20:07 UTC.
Position N 55°13' E 014°58'.

Length 38 m; draft 2.3 m.

Type: Ship. MMSI: 219000751.

Date/timePositionNaut miles runAvg speedWind from/ knotsBaromVisibWave heightAir tempDewpointWater temp
2016-Jul-25 19:33N 55°13' E 014°58'0 0.0
2016-Jul-25 18:33N 55°13' E 014°58'0 0.0
2016-Jul-25 17:33N 55°13' E 014°58'0 0.0
2016-Jul-25 16:33N 55°13' E 014°58'0 0.0
2016-Jul-25 15:33N 55°13' E 014°58'7 7.0
2016-Jul-25 14:33N 55°18' E 015°07'2 2.0
2016-Jul-25 13:33N 55°16' E 015°05'1 1.1
2016-Jul-25 12:33N 55°16' E 015°03'6 5.9
2016-Jul-25 11:33N 55°19' E 015°11'10 9.8
2016-Jul-25 10:33N 55°13' E 014°58'7 6.8
2016-Jul-25 09:34N 55°17' E 015°07'1 1.0
2016-Jul-25 08:33N 55°17' E 015°06'6 5.8
2016-Jul-25 07:33N 55°13' E 014°58'0 0.0
2016-Jul-25 06:33N 55°13' E 014°58'0 0.0
2016-Jul-25 05:33N 55°13' E 014°58'0 0.0
2016-Jul-25 04:33N 55°13' E 014°58'0 0.0
2016-Jul-25 03:33N 55°13' E 014°58'0 0.0
2016-Jul-25 02:33N 55°13' E 014°58'0 0.0
2016-Jul-25 01:33N 55°13' E 014°58'0 0.0
2016-Jul-25 00:33N 55°13' E 014°58'0 0.0
2016-Jul-24 23:33N 55°13' E 014°58'0 0.0
2016-Jul-24 22:33N 55°13' E 014°58'0 0.0
2016-Jul-24 21:33N 55°13' E 014°58'0 0.0
2016-Jul-24 20:33N 55°13' E 014°58'0 0.0
2016-Jul-24 19:33N 55°13' E 014°58'0 0.0
2016-Jul-24 18:33N 55°13' E 014°58'0 0.0
2016-Jul-24 17:33N 55°13' E 014°58'0 0.0
2016-Jul-24 16:34N 55°13' E 014°58'0 0.0
2016-Jul-24 15:33N 55°13' E 014°58'6 6.3
2016-Jul-24 14:33N 55°17' E 015°06'1 1.0
2016-Jul-24 13:33N 55°16' E 015°05'1 0.9
2016-Jul-24 12:33N 55°16' E 015°04'5 5.5
2016-Jul-24 11:33N 55°19' E 015°11'9 9.2
2016-Jul-24 10:33N 55°13' E 014°59'6 6.3
2016-Jul-24 09:33N 55°18' E 015°07'1 1.3
2016-Jul-24 08:33N 55°17' E 015°06'6 5.7
2016-Jul-24 07:33N 55°13' E 014°58'0 0.0
2016-Jul-24 06:33N 55°13' E 014°58'0 0.0
2016-Jul-24 05:33N 55°13' E 014°58'0 0.0
2016-Jul-24 04:33N 55°13' E 014°58'0 0.0
2016-Jul-24 03:33N 55°13' E 014°58'0 0.0
2016-Jul-24 02:33N 55°13' E 014°58'0 0.0
2016-Jul-24 01:33N 55°13' E 014°58'0 0.0
2016-Jul-24 00:33N 55°13' E 014°58'0 0.0
2016-Jul-23 23:33N 55°13' E 014°58'0 0.0
2016-Jul-23 22:33N 55°13' E 014°58'0 0.0
2016-Jul-23 21:33N 55°13' E 014°58'0 0.0
2016-Jul-23 20:33N 55°13' E 014°58'0 0.0
2016-Jul-23 19:33N 55°13' E 014°58'0 0.0
2016-Jul-23 18:33N 55°13' E 014°58'0 0.0
2016-Jul-23 17:33N 55°13' E 014°58'0 0.0
2016-Jul-23 16:33N 55°13' E 014°58'0 0.0
2016-Jul-23 15:33N 55°13' E 014°58'7 6.8
2016-Jul-23 14:33N 55°17' E 015°07'2 2.0
2016-Jul-23 13:33N 55°16' E 015°04'1 1.0
2016-Jul-23 12:33N 55°16' E 015°03'6 5.9
2016-Jul-23 11:33N 55°19' E 015°11'9 9.5
2016-Jul-23 10:33N 55°13' E 014°59'6 6.3
2016-Jul-23 09:33N 55°17' E 015°07'1 0.7
2016-Jul-23 08:33N 55°17' E 015°06'6 5.8
2016-Jul-23 07:32N 55°13' E 014°58'0 0.0
2016-Jul-23 06:33N 55°13' E 014°58'0 0.0
2016-Jul-23 04:34N 55°13' E 014°58'0 0.0
2016-Jul-23 03:33N 55°13' E 014°58'0 0.0
2016-Jul-23 02:33N 55°13' E 014°58'0 0.0
2016-Jul-23 01:33N 55°13' E 014°58'0 0.0
2016-Jul-23 00:33N 55°13' E 014°58'0 0.0
2016-Jul-22 23:33N 55°13' E 014°58'0 0.0
2016-Jul-22 22:33N 55°13' E 014°58'0 0.0
2016-Jul-22 21:33N 55°13' E 014°58'0 0.0
2016-Jul-22 20:33N 55°13' E 014°58'0 0.0
2016-Jul-22 19:33N 55°13' E 014°58'0 0.0
2016-Jul-22 18:33N 55°13' E 014°58'1 1.2
2016-Jul-22 17:33N 55°13' E 014°56'4 3.9
2016-Jul-22 16:33N 55°15' E 014°50'2 2.4
2016-Jul-22 15:34N 55°14' E 014°54'8 7.8
2016-Jul-22 14:33N 55°17' E 015°07'1 1.5
2016-Jul-22 13:33N 55°16' E 015°05'1 1.5
2016-Jul-22 12:33N 55°15' E 015°03'6 6.0
2016-Jul-22 11:33N 55°19' E 015°11'9 9.3
2016-Jul-22 10:33N 55°13' E 014°59'6 6.3
2016-Jul-22 09:33N 55°17' E 015°07'1 1.3
2016-Jul-22 08:33N 55°17' E 015°05'6 5.6
2016-Jul-22 07:33N 55°13' E 014°58'0 0.0
2016-Jul-22 05:33N 55°13' E 014°58'0 0.0
2016-Jul-22 04:33N 55°13' E 014°58'0 0.0
2016-Jul-22 03:33N 55°13' E 014°58'0 0.0
2016-Jul-22 02:33N 55°13' E 014°58'0 0.0
2016-Jul-22 01:33N 55°13' E 014°58'0 0.0
2016-Jul-22 00:33N 55°13' E 014°58'0 0.0
2016-Jul-21 23:33N 55°13' E 014°58'0 0.0
2016-Jul-21 22:33N 55°13' E 014°58'0 0.0
2016-Jul-21 21:33N 55°13' E 014°58'0 0.0
2016-Jul-21 20:33N 55°13' E 014°58'0 0.0
2016-Jul-21 19:33N 55°13' E 014°58'0 0.0
2016-Jul-21 18:33N 55°13' E 014°58'10 9.7
2016-Jul-21 17:33N 55°19' E 015°11'6 6.4
2016-Jul-21 16:33N 55°15' E 015°02'3 3.3
2016-Jul-21 15:33N 55°13' E 014°58'7 6.9
2016-Jul-21 14:33N 55°17' E 015°07'2 1.9
2016-Jul-21 13:33N 55°16' E 015°04'1 0.9
2016-Jul-21 12:33N 55°16' E 015°03'6 5.8
2016-Jul-21 11:33N 55°19' E 015°11'10 9.7
2016-Jul-21 10:34N 55°13' E 014°58'6 6.5
2016-Jul-21 09:34N 55°17' E 015°07'1 0.6
2016-Jul-21 08:33N 55°17' E 015°06'6 6.0
2016-Jul-21 07:33N 55°13' E 014°58'0 0.0
2016-Jul-21 06:33N 55°13' E 014°58'0 0.0
2016-Jul-21 05:33N 55°13' E 014°58'0 0.0
2016-Jul-21 04:33N 55°13' E 014°58'0 0.0
2016-Jul-21 03:33N 55°13' E 014°58'0 0.0
2016-Jul-21 02:33N 55°13' E 014°58'0 0.0
2016-Jul-21 01:33N 55°13' E 014°58'0 0.0
2016-Jul-21 00:33N 55°13' E 014°58'0 0.0
2016-Jul-20 23:33N 55°13' E 014°58'0 0.0
2016-Jul-20 22:33N 55°13' E 014°58'0 0.0
2016-Jul-20 21:33N 55°13' E 014°58'0 0.0
2016-Jul-20 20:33N 55°13' E 014°58'0 0.0
2016-Jul-20 19:33N 55°13' E 014°58'0 0.0
2016-Jul-20 18:33N 55°13' E 014°58'10 9.8
2016-Jul-20 17:34N 55°19' E 015°11'8 8.1
2016-Jul-20 16:33N 55°14' E 015°00'2 1.7
2016-Jul-20 15:33N 55°13' E 014°58'8 7.9
2016-Jul-20 14:33N 55°18' E 015°08'3 3.2
2016-Jul-20 13:33N 55°16' E 015°04'1 0.9
2016-Jul-20 12:33N 55°15' E 015°03'6 6.0
2016-Jul-20 11:33N 55°19' E 015°11'10 9.7
2016-Jul-20 10:34N 55°13' E 014°58'6 6.2
2016-Jul-20 09:33N 55°17' E 015°07'1 0.6
2016-Jul-20 08:33N 55°17' E 015°06'6 6.0
2016-Jul-20 07:33N 55°13' E 014°58'0 0.0
2016-Jul-20 06:34N 55°13' E 014°58'0 0.0
2016-Jul-20 05:33N 55°13' E 014°58'0 0.0
2016-Jul-20 04:34N 55°13' E 014°58'0 0.0
2016-Jul-20 03:33N 55°13' E 014°58'0 0.0
2016-Jul-20 02:33N 55°13' E 014°58'0 0.0
2016-Jul-20 01:33N 55°13' E 014°58'0 0.0
2016-Jul-20 00:33N 55°13' E 014°58'0 0.0
2016-Jul-19 23:33N 55°13' E 014°58'0 0.0
2016-Jul-19 22:33N 55°13' E 014°58'0 0.0
2016-Jul-19 21:33N 55°13' E 014°58'0 0.0
2016-Jul-19 20:33N 55°13' E 014°58'0 0.0
2016-Jul-19 19:33N 55°13' E 014°58'0 0.0
2016-Jul-19 18:33N 55°13' E 014°58'1010.0
2016-Jul-19 17:34N 55°19' E 015°11'7 7.0
2016-Jul-19 16:33N 55°15' E 015°02'3 2.9
2016-Jul-19 15:33N 55°13' E 014°58'8 7.9
2016-Jul-19 14:33N 55°18' E 015°08'3 3.4
2016-Jul-19 13:33N 55°16' E 015°04'1 0.5
2016-Jul-19 12:33N 55°16' E 015°03'6 5.8
2016-Jul-19 11:33N 55°19' E 015°11'9 9.2
2016-Jul-19 10:33N 55°13' E 014°59'6 6.0
2016-Jul-19 09:33N 55°17' E 015°07'1 0.9
2016-Jul-19 08:33N 55°17' E 015°05'6 5.8
2016-Jul-19 07:33N 55°13' E 014°58'0 0.0
2016-Jul-19 04:33N 55°13' E 014°58'0 0.0
2016-Jul-19 03:33N 55°13' E 014°58'0 0.0
2016-Jul-19 02:33N 55°13' E 014°58'0 0.0
2016-Jul-19 01:33N 55°13' E 014°58'0 0.0
2016-Jul-19 00:34N 55°13' E 014°58'0 0.0
2016-Jul-18 23:33N 55°13' E 014°58'0 0.0
2016-Jul-18 22:33N 55°13' E 014°58'0 0.0
2016-Jul-18 21:33N 55°13' E 014°58'0 0.0
2016-Jul-18 20:33N 55°13' E 014°58'0 0.0
2016-Jul-18 19:34N 55°13' E 014°58'0 0.0
2016-Jul-18 18:33N 55°13' E 014°58'0 0.0
2016-Jul-18 17:33N 55°13' E 014°58'0 0.0
2016-Jul-18 16:33N 55°13' E 014°58'0 0.0
2016-Jul-18 15:33N 55°13' E 014°58'7 6.9
2016-Jul-18 14:33N 55°17' E 015°07'2 1.6
2016-Jul-18 13:33N 55°16' E 015°05'1 1.3
2016-Jul-18 12:33N 55°15' E 015°03'6 5.9
2016-Jul-18 11:33N 55°19' E 015°11'9 9.4
2016-Jul-18 10:33N 55°13' E 014°59'6 6.0
2016-Jul-18 09:33N 55°17' E 015°07'1 0.6
2016-Jul-18 08:33N 55°17' E 015°05'6 5.9
2016-Jul-18 07:33N 55°13' E 014°58'0 0.0
2016-Jul-18 06:33N 55°13' E 014°58'0 0.0
2016-Jul-18 05:33N 55°13' E 014°58'0 0.0
2016-Jul-18 04:33N 55°13' E 014°58'0 0.0
2016-Jul-18 03:33N 55°13' E 014°58'0 0.0
2016-Jul-18 02:33N 55°13' E 014°58'0 0.0
2016-Jul-18 01:33N 55°13' E 014°58'0 0.0
2016-Jul-18 00:33N 55°13' E 014°58'0 0.0
2016-Jul-17 23:33N 55°13' E 014°58'0 0.0
2016-Jul-17 22:33N 55°13' E 014°58'0 0.0
2016-Jul-17 21:33N 55°13' E 014°58'0 0.0
2016-Jul-17 20:33N 55°13' E 014°58'0 0.0
2016-Jul-17 19:33N 55°13' E 014°58'0 0.0
2016-Jul-17 18:33N 55°13' E 014°58'0 0.0
2016-Jul-17 17:33N 55°13' E 014°58'0 0.0
2016-Jul-17 16:33N 55°13' E 014°58'0 0.0
2016-Jul-17 15:33N 55°13' E 014°58'7 6.8
2016-Jul-17 14:33N 55°17' E 015°07'2 1.9
2016-Jul-17 13:33N 55°16' E 015°05'1 0.9
2016-Jul-17 12:34N 55°16' E 015°03'6 5.8
2016-Jul-17 11:33N 55°19' E 015°11'9 9.4
2016-Jul-17 10:33N 55°13' E 014°59'7 6.7
2016-Jul-17 09:33N 55°17' E 015°07'2 2.4
2016-Jul-17 08:33N 55°18' E 015°03'6 5.6
2016-Jul-17 07:33N 55°13' E 014°58'0 0.0
2016-Jul-17 06:33N 55°13' E 014°58'0 0.0
2016-Jul-17 04:33N 55°13' E 014°58'0 0.0
2016-Jul-17 03:33N 55°13' E 014°58'0 0.0
2016-Jul-17 02:33N 55°13' E 014°58'0 0.0
2016-Jul-17 01:33N 55°13' E 014°58'0 0.0
2016-Jul-17 00:33N 55°13' E 014°58'0 0.0
2016-Jul-16 23:33N 55°13' E 014°58'0 0.0
2016-Jul-16 22:33N 55°13' E 014°58'0 0.0
2016-Jul-16 21:33N 55°13' E 014°58'0 0.0
2016-Jul-16 20:33N 55°13' E 014°58'0 0.0
2016-Jul-16 19:33N 55°13' E 014°58'0 0.0
2016-Jul-16 18:33N 55°13' E 014°58'0 0.0
2016-Jul-16 17:33N 55°13' E 014°58'0 0.0
2016-Jul-16 16:33N 55°13' E 014°58'0 0.0
2016-Jul-16 15:33N 55°13' E 014°58'7 6.9
2016-Jul-16 14:33N 55°17' E 015°07'2 2.2
2016-Jul-16 13:33N 55°16' E 015°04'1 0.5
2016-Jul-16 12:33N 55°16' E 015°04'6 5.6
2016-Jul-16 11:33N 55°19' E 015°11'9 9.4
2016-Jul-16 10:33N 55°13' E 014°59'7 6.6
2016-Jul-16 09:33N 55°18' E 015°07'2 2.5
2016-Jul-16 08:33N 55°17' E 015°03'5 5.1
2016-Jul-16 07:33N 55°13' E 014°58'0 0.0
2016-Jul-16 06:32N 55°13' E 014°58'0 0.0
2016-Jul-16 04:33N 55°13' E 014°58'0 0.0
2016-Jul-16 03:33N 55°13' E 014°58'0 0.0
2016-Jul-16 02:33N 55°13' E 014°58'0 0.0
2016-Jul-16 01:33N 55°13' E 014°58'0 0.0
2016-Jul-16 00:33N 55°13' E 014°58'0 0.0
2016-Jul-15 23:33N 55°13' E 014°58'0 0.0
2016-Jul-15 22:33N 55°13' E 014°58'0 0.0
2016-Jul-15 21:33N 55°13' E 014°58'0 0.0
2016-Jul-15 20:33N 55°13' E 014°58'0 0.0
2016-Jul-15 19:33N 55°13' E 014°58'  
Track history (hours):
 
Tides and Currents Weather Stations Pressure Air Temp Water Temp Dewpoint Dewpoint Depression Visibility Wind Speed Wind Dir Waves Ship Positions

Ertholm

Last reported at 2016-Jul-25 19:33 UTC. Time now 2016-Jul-25 20:07 UTC.
Position N 55°13' E 014°58'.

Length 38 m; draft 2.3 m.

Type: Ship. MMSI: 219000751.

Date/timePositionNaut miles runAvg speedWind from/ knotsBaromVisibWave heightAir tempDewpointWater temp
2016-Jul-25 19:33N 55°13' E 014°58'0 0.0
2016-Jul-25 18:33N 55°13' E 014°58'0 0.0
2016-Jul-25 17:33N 55°13' E 014°58'0 0.0
2016-Jul-25 16:33N 55°13' E 014°58'0 0.0
2016-Jul-25 15:33N 55°13' E 014°58'7 7.0
2016-Jul-25 14:33N 55°18' E 015°07'2 2.0
2016-Jul-25 13:33N 55°16' E 015°05'1 1.1
2016-Jul-25 12:33N 55°16' E 015°03'6 5.9
2016-Jul-25 11:33N 55°19' E 015°11'10 9.8
2016-Jul-25 10:33N 55°13' E 014°58'7 6.8
2016-Jul-25 09:34N 55°17' E 015°07'1 1.0
2016-Jul-25 08:33N 55°17' E 015°06'6 5.8
2016-Jul-25 07:33N 55°13' E 014°58'0 0.0
2016-Jul-25 06:33N 55°13' E 014°58'0 0.0
2016-Jul-25 05:33N 55°13' E 014°58'0 0.0
2016-Jul-25 04:33N 55°13' E 014°58'0 0.0
2016-Jul-25 03:33N 55°13' E 014°58'0 0.0
2016-Jul-25 02:33N 55°13' E 014°58'0 0.0
2016-Jul-25 01:33N 55°13' E 014°58'0 0.0
2016-Jul-25 00:33N 55°13' E 014°58'0 0.0
2016-Jul-24 23:33N 55°13' E 014°58'0 0.0
2016-Jul-24 22:33N 55°13' E 014°58'0 0.0
2016-Jul-24 21:33N 55°13' E 014°58'0 0.0
2016-Jul-24 20:33N 55°13' E 014°58'0 0.0
2016-Jul-24 19:33N 55°13' E 014°58'0 0.0
2016-Jul-24 18:33N 55°13' E 014°58'0 0.0
2016-Jul-24 17:33N 55°13' E 014°58'0 0.0
2016-Jul-24 16:34N 55°13' E 014°58'0 0.0
2016-Jul-24 15:33N 55°13' E 014°58'6 6.3
2016-Jul-24 14:33N 55°17' E 015°06'1 1.0
2016-Jul-24 13:33N 55°16' E 015°05'1 0.9
2016-Jul-24 12:33N 55°16' E 015°04'5 5.5
2016-Jul-24 11:33N 55°19' E 015°11'9 9.2
2016-Jul-24 10:33N 55°13' E 014°59'6 6.3
2016-Jul-24 09:33N 55°18' E 015°07'1 1.3
2016-Jul-24 08:33N 55°17' E 015°06'6 5.7
2016-Jul-24 07:33N 55°13' E 014°58'0 0.0
2016-Jul-24 06:33N 55°13' E 014°58'0 0.0
2016-Jul-24 05:33N 55°13' E 014°58'0 0.0
2016-Jul-24 04:33N 55°13' E 014°58'0 0.0
2016-Jul-24 03:33N 55°13' E 014°58'0 0.0
2016-Jul-24 02:33N 55°13' E 014°58'0 0.0
2016-Jul-24 01:33N 55°13' E 014°58'0 0.0
2016-Jul-24 00:33N 55°13' E 014°58'0 0.0
2016-Jul-23 23:33N 55°13' E 014°58'0 0.0
2016-Jul-23 22:33N 55°13' E 014°58'0 0.0
2016-Jul-23 21:33N 55°13' E 014°58'0 0.0
2016-Jul-23 20:33N 55°13' E 014°58'0 0.0
2016-Jul-23 19:33N 55°13' E 014°58'0 0.0
2016-Jul-23 18:33N 55°13' E 014°58'0 0.0
2016-Jul-23 17:33N 55°13' E 014°58'0 0.0
2016-Jul-23 16:33N 55°13' E 014°58'0 0.0
2016-Jul-23 15:33N 55°13' E 014°58'7 6.8
2016-Jul-23 14:33N 55°17' E 015°07'2 2.0
2016-Jul-23 13:33N 55°16' E 015°04'1 1.0
2016-Jul-23 12:33N 55°16' E 015°03'6 5.9
2016-Jul-23 11:33N 55°19' E 015°11'9 9.5
2016-Jul-23 10:33N 55°13' E 014°59'6 6.3
2016-Jul-23 09:33N 55°17' E 015°07'1 0.7
2016-Jul-23 08:33N 55°17' E 015°06'6 5.8
2016-Jul-23 07:32N 55°13' E 014°58'0 0.0
2016-Jul-23 06:33N 55°13' E 014°58'0 0.0
2016-Jul-23 04:34N 55°13' E 014°58'0 0.0
2016-Jul-23 03:33N 55°13' E 014°58'0 0.0
2016-Jul-23 02:33N 55°13' E 014°58'0 0.0
2016-Jul-23 01:33N 55°13' E 014°58'0 0.0
2016-Jul-23 00:33N 55°13' E 014°58'0 0.0
2016-Jul-22 23:33N 55°13' E 014°58'0 0.0
2016-Jul-22 22:33N 55°13' E 014°58'0 0.0
2016-Jul-22 21:33N 55°13' E 014°58'0 0.0
2016-Jul-22 20:33N 55°13' E 014°58'0 0.0
2016-Jul-22 19:33N 55°13' E 014°58'0 0.0
2016-Jul-22 18:33N 55°13' E 014°58'1 1.2
2016-Jul-22 17:33N 55°13' E 014°56'4 3.9
2016-Jul-22 16:33N 55°15' E 014°50'2 2.4
2016-Jul-22 15:34N 55°14' E 014°54'8 7.8
2016-Jul-22 14:33N 55°17' E 015°07'1 1.5
2016-Jul-22 13:33N 55°16' E 015°05'1 1.5
2016-Jul-22 12:33N 55°15' E 015°03'6 6.0
2016-Jul-22 11:33N 55°19' E 015°11'9 9.3
2016-Jul-22 10:33N 55°13' E 014°59'6 6.3
2016-Jul-22 09:33N 55°17' E 015°07'1 1.3
2016-Jul-22 08:33N 55°17' E 015°05'6 5.6
2016-Jul-22 07:33N 55°13' E 014°58'0 0.0
2016-Jul-22 05:33N 55°13' E 014°58'0 0.0
2016-Jul-22 04:33N 55°13' E 014°58'0 0.0
2016-Jul-22 03:33N 55°13' E 014°58'0 0.0
2016-Jul-22 02:33N 55°13' E 014°58'0 0.0
2016-Jul-22 01:33N 55°13' E 014°58'0 0.0
2016-Jul-22 00:33N 55°13' E 014°58'0 0.0
2016-Jul-21 23:33N 55°13' E 014°58'0 0.0
2016-Jul-21 22:33N 55°13' E 014°58'0 0.0
2016-Jul-21 21:33N 55°13' E 014°58'0 0.0
2016-Jul-21 20:33N 55°13' E 014°58'0 0.0
2016-Jul-21 19:33N 55°13' E 014°58'0 0.0
2016-Jul-21 18:33N 55°13' E 014°58'10 9.7
2016-Jul-21 17:33N 55°19' E 015°11'6 6.4
2016-Jul-21 16:33N 55°15' E 015°02'3 3.3
2016-Jul-21 15:33N 55°13' E 014°58'7 6.9
2016-Jul-21 14:33N 55°17' E 015°07'2 1.9
2016-Jul-21 13:33N 55°16' E 015°04'1 0.9
2016-Jul-21 12:33N 55°16' E 015°03'6 5.8
2016-Jul-21 11:33N 55°19' E 015°11'10 9.7
2016-Jul-21 10:34N 55°13' E 014°58'6 6.5
2016-Jul-21 09:34N 55°17' E 015°07'1 0.6
2016-Jul-21 08:33N 55°17' E 015°06'6 6.0
2016-Jul-21 07:33N 55°13' E 014°58'0 0.0
2016-Jul-21 06:33N 55°13' E 014°58'0 0.0
2016-Jul-21 05:33N 55°13' E 014°58'0 0.0
2016-Jul-21 04:33N 55°13' E 014°58'0 0.0
2016-Jul-21 03:33N 55°13' E 014°58'0 0.0
2016-Jul-21 02:33N 55°13' E 014°58'0 0.0
2016-Jul-21 01:33N 55°13' E 014°58'0 0.0
2016-Jul-21 00:33N 55°13' E 014°58'0 0.0
2016-Jul-20 23:33N 55°13' E 014°58'0 0.0
2016-Jul-20 22:33N 55°13' E 014°58'0 0.0
2016-Jul-20 21:33N 55°13' E 014°58'0 0.0
2016-Jul-20 20:33N 55°13' E 014°58'0 0.0
2016-Jul-20 19:33N 55°13' E 014°58'0 0.0
2016-Jul-20 18:33N 55°13' E 014°58'10 9.8
2016-Jul-20 17:34N 55°19' E 015°11'8 8.1
2016-Jul-20 16:33N 55°14' E 015°00'2 1.7
2016-Jul-20 15:33N 55°13' E 014°58'8 7.9
2016-Jul-20 14:33N 55°18' E 015°08'3 3.2
2016-Jul-20 13:33N 55°16' E 015°04'1 0.9
2016-Jul-20 12:33N 55°15' E 015°03'6 6.0
2016-Jul-20 11:33N 55°19' E 015°11'10 9.7
2016-Jul-20 10:34N 55°13' E 014°58'6 6.2
2016-Jul-20 09:33N 55°17' E 015°07'1 0.6
2016-Jul-20 08:33N 55°17' E 015°06'6 6.0
2016-Jul-20 07:33N 55°13' E 014°58'0 0.0
2016-Jul-20 06:34N 55°13' E 014°58'0 0.0
2016-Jul-20 05:33N 55°13' E 014°58'0 0.0
2016-Jul-20 04:34N 55°13' E 014°58'0 0.0
2016-Jul-20 03:33N 55°13' E 014°58'0 0.0
2016-Jul-20 02:33N 55°13' E 014°58'0 0.0
2016-Jul-20 01:33N 55°13' E 014°58'0 0.0
2016-Jul-20 00:33N 55°13' E 014°58'0 0.0
2016-Jul-19 23:33N 55°13' E 014°58'0 0.0
2016-Jul-19 22:33N 55°13' E 014°58'0 0.0
2016-Jul-19 21:33N 55°13' E 014°58'0 0.0
2016-Jul-19 20:33N 55°13' E 014°58'0 0.0
2016-Jul-19 19:33N 55°13' E 014°58'0 0.0
2016-Jul-19 18:33N 55°13' E 014°58'1010.0
2016-Jul-19 17:34N 55°19' E 015°11'7 7.0
2016-Jul-19 16:33N 55°15' E 015°02'3 2.9
2016-Jul-19 15:33N 55°13' E 014°58'8 7.9
2016-Jul-19 14:33N 55°18' E 015°08'3 3.4
2016-Jul-19 13:33N 55°16' E 015°04'1 0.5
2016-Jul-19 12:33N 55°16' E 015°03'6 5.8
2016-Jul-19 11:33N 55°19' E 015°11'9 9.2
2016-Jul-19 10:33N 55°13' E 014°59'6 6.0
2016-Jul-19 09:33N 55°17' E 015°07'1 0.9
2016-Jul-19 08:33N 55°17' E 015°05'6 5.8
2016-Jul-19 07:33N 55°13' E 014°58'0 0.0
2016-Jul-19 04:33N 55°13' E 014°58'0 0.0
2016-Jul-19 03:33N 55°13' E 014°58'0 0.0
2016-Jul-19 02:33N 55°13' E 014°58'0 0.0
2016-Jul-19 01:33N 55°13' E 014°58'0 0.0
2016-Jul-19 00:34N 55°13' E 014°58'0 0.0
2016-Jul-18 23:33N 55°13' E 014°58'0 0.0
2016-Jul-18 22:33N 55°13' E 014°58'0 0.0
2016-Jul-18 21:33N 55°13' E 014°58'0 0.0
2016-Jul-18 20:33N 55°13' E 014°58'0 0.0
2016-Jul-18 19:34N 55°13' E 014°58'0 0.0
2016-Jul-18 18:33N 55°13' E 014°58'0 0.0
2016-Jul-18 17:33N 55°13' E 014°58'0 0.0
2016-Jul-18 16:33N 55°13' E 014°58'0 0.0
2016-Jul-18 15:33N 55°13' E 014°58'7 6.9
2016-Jul-18 14:33N 55°17' E 015°07'2 1.6
2016-Jul-18 13:33N 55°16' E 015°05'1 1.3
2016-Jul-18 12:33N 55°15' E 015°03'6 5.9
2016-Jul-18 11:33N 55°19' E 015°11'9 9.4
2016-Jul-18 10:33N 55°13' E 014°59'6 6.0
2016-Jul-18 09:33N 55°17' E 015°07'1 0.6
2016-Jul-18 08:33N 55°17' E 015°05'6 5.9
2016-Jul-18 07:33N 55°13' E 014°58'0 0.0
2016-Jul-18 06:33N 55°13' E 014°58'0 0.0
2016-Jul-18 05:33N 55°13' E 014°58'0 0.0
2016-Jul-18 04:33N 55°13' E 014°58'0 0.0
2016-Jul-18 03:33N 55°13' E 014°58'0 0.0
2016-Jul-18 02:33N 55°13' E 014°58'0 0.0
2016-Jul-18 01:33N 55°13' E 014°58'0 0.0
2016-Jul-18 00:33N 55°13' E 014°58'0 0.0
2016-Jul-17 23:33N 55°13' E 014°58'0 0.0
2016-Jul-17 22:33N 55°13' E 014°58'0 0.0
2016-Jul-17 21:33N 55°13' E 014°58'0 0.0
2016-Jul-17 20:33N 55°13' E 014°58'0 0.0
2016-Jul-17 19:33N 55°13' E 014°58'0 0.0
2016-Jul-17 18:33N 55°13' E 014°58'0 0.0
2016-Jul-17 17:33N 55°13' E 014°58'0 0.0
2016-Jul-17 16:33N 55°13' E 014°58'0 0.0
2016-Jul-17 15:33N 55°13' E 014°58'7 6.8
2016-Jul-17 14:33N 55°17' E 015°07'2 1.9
2016-Jul-17 13:33N 55°16' E 015°05'1 0.9
2016-Jul-17 12:34N 55°16' E 015°03'6 5.8
2016-Jul-17 11:33N 55°19' E 015°11'9 9.4
2016-Jul-17 10:33N 55°13' E 014°59'7 6.7
2016-Jul-17 09:33N 55°17' E 015°07'2 2.4
2016-Jul-17 08:33N 55°18' E 015°03'6 5.6
2016-Jul-17 07:33N 55°13' E 014°58'0 0.0
2016-Jul-17 06:33N 55°13' E 014°58'0 0.0
2016-Jul-17 04:33N 55°13' E 014°58'0 0.0
2016-Jul-17 03:33N 55°13' E 014°58'0 0.0
2016-Jul-17 02:33N 55°13' E 014°58'0 0.0
2016-Jul-17 01:33N 55°13' E 014°58'0 0.0
2016-Jul-17 00:33N 55°13' E 014°58'0 0.0
2016-Jul-16 23:33N 55°13' E 014°58'0 0.0
2016-Jul-16 22:33N 55°13' E 014°58'0 0.0
2016-Jul-16 21:33N 55°13' E 014°58'0 0.0
2016-Jul-16 20:33N 55°13' E 014°58'0 0.0
2016-Jul-16 19:33N 55°13' E 014°58'0 0.0
2016-Jul-16 18:33N 55°13' E 014°58'0 0.0
2016-Jul-16 17:33N 55°13' E 014°58'0 0.0
2016-Jul-16 16:33N 55°13' E 014°58'0 0.0
2016-Jul-16 15:33N 55°13' E 014°58'7 6.9
2016-Jul-16 14:33N 55°17' E 015°07'2 2.2
2016-Jul-16 13:33N 55°16' E 015°04'1 0.5
2016-Jul-16 12:33N 55°16' E 015°04'6 5.6
2016-Jul-16 11:33N 55°19' E 015°11'9 9.4
2016-Jul-16 10:33N 55°13' E 014°59'7 6.6
2016-Jul-16 09:33N 55°18' E 015°07'2 2.5
2016-Jul-16 08:33N 55°17' E 015°03'5 5.1
2016-Jul-16 07:33N 55°13' E 014°58'0 0.0
2016-Jul-16 06:32N 55°13' E 014°58'0 0.0
2016-Jul-16 04:33N 55°13' E 014°58'0 0.0
2016-Jul-16 03:33N 55°13' E 014°58'0 0.0
2016-Jul-16 02:33N 55°13' E 014°58'0 0.0
2016-Jul-16 01:33N 55°13' E 014°58'0 0.0
2016-Jul-16 00:33N 55°13' E 014°58'0 0.0
2016-Jul-15 23:33N 55°13' E 014°58'0 0.0
2016-Jul-15 22:33N 55°13' E 014°58'0 0.0
2016-Jul-15 21:33N 55°13' E 014°58'0 0.0
2016-Jul-15 20:33N 55°13' E 014°58'0 0.0
2016-Jul-15 19:33N 55°13' E 014°58'  

Dump ship's entire track history